Time;durP1;ratioP1;P1;durP2;ratioP2;P2;SDS_P1;SDS_P2;PMS_P1;PMS_P2;Temp;Humidity;BMP_temperature;BMP_pressure;BME280_temperature;BME280_humidity;BME280_pressure;Samples;Min_cycle;Max_cycle;Signal;HPM_P1;HPM_P2
2023/03/01 00:01:39;;;;;;;8.98;2.40;;;4.80;99.90;;;;;;6219414;23;20475;-91
2023/03/01 00:04:07;;;;;;;4.95;2.30;;;4.80;99.90;;;;;;6218557;23;20008;-92
2023/03/01 00:06:34;;;;;;;10.35;2.45;;;4.80;99.90;;;;;;6218003;23;20080;-92
2023/03/01 00:09:06;;;;;;;6.72;2.58;;;4.90;99.90;;;;;;6219220;23;20030;-93
2023/03/01 00:11:37;;;;;;;5.93;3.00;;;4.90;99.90;;;;;;6218365;23;20490;-93
2023/03/01 00:14:08;;;;;;;8.02;3.10;;;5.00;99.90;;;;;;6218165;23;20436;-91
2023/03/01 00:16:45;;;;;;;7.63;3.30;;;5.00;99.90;;;;;;6218962;23;20004;-93
2023/03/01 00:19:14;;;;;;;6.15;2.78;;;4.90;99.90;;;;;;6214341;23;20432;-91
2023/03/01 00:22:28;;;;;;;5.78;2.83;;;5.00;99.90;;;;;;6194005;23;20440;-93
2023/03/01 00:24:56;;;;;;;4.82;2.50;;;5.00;99.90;;;;;;6150684;23;20428;-93
2023/03/01 00:27:22;;;;;;;5.22;2.50;;;4.90;99.90;;;;;;6216449;23;20017;-93
2023/03/01 00:29:48;;;;;;;5.15;2.75;;;4.90;99.90;;;;;;6216471;23;20518;-93
2023/03/01 00:32:14;;;;;;;4.28;2.63;;;4.90;99.90;;;;;;6214178;23;20432;-92
2023/03/01 00:34:53;;;;;;;5.88;2.97;;;4.90;99.90;;;;;;6216957;23;20004;-92
2023/03/01 00:37:23;;;;;;;5.55;2.60;;;4.90;99.90;;;;;;6216927;23;20020;-92
2023/03/01 00:39:50;;;;;;;6.93;4.03;;;4.90;99.90;;;;;;6216882;23;20005;-93
2023/03/01 00:42:19;;;;;;;6.30;3.67;;;4.90;99.90;;;;;;6216518;23;20235;-93
2023/03/01 00:44:45;;;;;;;8.98;3.92;;;4.90;99.90;;;;;;6216468;23;20075;-92
2023/03/01 00:47:11;;;;;;;7.25;3.83;;;4.90;99.90;;;;;;6215831;23;20040;-90
2023/03/01 00:49:37;;;;;;;10.98;4.22;;;4.90;99.90;;;;;;6216281;23;20007;-92
2023/03/01 00:52:03;;;;;;;8.75;4.00;;;4.90;99.90;;;;;;6216331;23;20036;-93
2023/03/01 00:54:28;;;;;;;7.15;3.67;;;4.90;99.90;;;;;;6216215;23;20004;-93
2023/03/01 00:56:54;;;;;;;7.68;3.88;;;5.00;99.90;;;;;;6215557;23;20005;-93
2023/03/01 00:59:20;;;;;;;10.65;3.95;;;5.00;99.90;;;;;;6216342;23;20001;-92
2023/03/01 01:01:46;;;;;;;7.53;3.88;;;5.00;99.90;;;;;;6216041;23;20383;-92
2023/03/01 01:04:17;;;;;;;6.50;3.70;;;5.00;99.90;;;;;;6215978;23;20013;-93
2023/03/01 01:06:48;;;;;;;5.97;3.28;;;5.00;99.90;;;;;;6215753;23;19996;-93
2023/03/01 01:09:19;;;;;;;6.85;2.70;;;5.00;99.90;;;;;;6217056;23;20012;-93
2023/03/01 01:11:50;;;;;;;7.50;2.72;;;5.00;99.90;;;;;;6217327;23;20001;-93
2023/03/01 01:14:17;;;;;;;7.68;3.45;;;5.00;99.90;;;;;;6228626;23;20008;-93
2023/03/01 01:16:46;;;;;;;7.93;3.40;;;5.00;99.90;;;;;;6227215;23;20000;-93
2023/03/01 01:19:14;;;;;;;6.57;3.33;;;4.90;99.90;;;;;;6221919;23;20067;-93
2023/03/01 01:21:42;;;;;;;8.07;3.58;;;4.90;99.90;;;;;;6218155;23;20016;-93
2023/03/01 01:24:10;;;;;;;7.53;3.72;;;4.90;99.90;;;;;;6216691;23;20009;-92
2023/03/01 01:26:37;;;;;;;8.82;3.67;;;4.90;99.90;;;;;;6216522;23;20087;-93
2023/03/01 01:29:04;;;;;;;5.53;3.28;;;4.90;99.90;;;;;;6216676;23;20004;-92
2023/03/01 01:31:32;;;;;;;7.97;3.35;;;4.90;99.90;;;;;;6216562;23;20028;-93
2023/03/01 01:33:59;;;;;;;14.60;4.93;;;4.80;99.90;;;;;;6218989;23;20079;-91
2023/03/01 01:36:25;;;;;;;9.80;3.92;;;4.80;99.90;;;;;;6232942;23;20462;-94
2023/03/01 01:38:51;;;;;;;14.27;5.03;;;4.80;99.90;;;;;;6191700;23;20009;-92
2023/03/01 01:41:20;;;;;;;12.10;4.28;;;4.80;99.90;;;;;;6217753;23;20005;-90
2023/03/01 01:44:28;;;;;;;11.63;4.43;;;4.80;99.90;;;;;;6216524;23;20079;-92
2023/03/01 01:46:57;;;;;;;8.88;4.20;;;4.80;99.90;;;;;;6215839;23;20039;-92
2023/03/01 01:49:47;;;;;;;7.38;3.90;;;4.80;99.90;;;;;;6216189;23;20047;-92
2023/03/01 01:52:28;;;;;;;11.45;4.18;;;4.80;99.90;;;;;;6216868;23;20012;-92
2023/03/01 01:54:57;;;;;;;9.80;3.95;;;4.80;99.90;;;;;;6216868;23;20004;-92
2023/03/01 01:57:34;;;;;;;8.88;4.03;;;4.70;99.90;;;;;;6216580;23;20000;-92
2023/03/01 02:00:11;;;;;;;9.02;3.40;;;4.70;99.90;;;;;;6215758;23;20005;-92
2023/03/01 02:02:39;;;;;;;6.40;3.60;;;4.70;99.90;;;;;;6209877;23;20071;-92
2023/03/01 02:05:36;;;;;;;8.15;2.70;;;4.70;99.90;;;;;;6216477;23;20056;-92
2023/03/01 02:08:02;;;;;;;8.05;3.78;;;4.70;99.90;;;;;;6215644;23;20020;-92
2023/03/01 02:10:29;;;;;;;5.50;2.55;;;4.70;99.90;;;;;;6215536;23;20000;-93
2023/03/01 02:12:57;;;;;;;6.93;1.98;;;4.70;99.90;;;;;;6215524;23;20063;-92
2023/03/01 02:15:24;;;;;;;5.38;2.33;;;4.70;99.90;;;;;;6215168;23;20001;-90
2023/03/01 02:17:51;;;;;;;2.47;1.30;;;4.70;99.90;;;;;;6215564;23;20011;-91
2023/03/01 02:20:29;;;;;;;2.95;1.30;;;4.70;99.90;;;;;;6215521;23;20424;-92
2023/03/01 02:22:55;;;;;;;8.65;1.33;;;4.70;99.90;;;;;;6215116;23;20435;-91
2023/03/01 02:25:24;;;;;;;2.78;1.10;;;4.70;99.90;;;;;;6215148;23;20020;-92
2023/03/01 02:28:05;;;;;;;1.35;0.82;;;4.70;99.90;;;;;;6215297;23;20066;-91
2023/03/01 02:30:32;;;;;;;1.45;1.35;;;4.70;99.90;;;;;;6215038;23;20000;-92
2023/03/01 02:33:02;;;;;;;3.80;1.27;;;4.70;99.90;;;;;;6215140;23;20005;-92
2023/03/01 02:35:34;;;;;;;2.80;1.63;;;4.60;99.90;;;;;;6215692;23;20005;-91
2023/03/01 02:38:02;;;;;;;2.63;1.10;;;4.70;99.90;;;;;;6216171;23;20436;-91
2023/03/01 02:40:33;;;;;;;2.50;1.40;;;4.70;99.90;;;;;;6215529;23;20055;-91
2023/03/01 02:42:59;;;;;;;;;;;4.70;99.90;;;;;;6215941;23;20044;-92
2023/03/01 02:45:26;;;;;;;4.32;1.77;;;4.70;99.90;;;;;;6215524;23;19903;-92
2023/03/01 02:47:57;;;;;;;3.42;1.77;;;4.60;99.90;;;;;;6214304;23;20023;-91
2023/03/01 02:50:29;;;;;;;4.68;2.00;;;4.60;99.90;;;;;;6215007;23;20023;-92
2023/03/01 02:53:01;;;;;;;4.75;2.00;;;4.60;99.90;;;;;;6214697;23;20008;-92
2023/03/01 02:55:27;;;;;;;2.22;1.73;;;4.60;99.90;;;;;;6215309;23;20062;-91
2023/03/01 02:57:55;;;;;;;3.13;1.83;;;4.60;99.90;;;;;;6215198;23;20058;-92
2023/03/01 03:00:30;;;;;;;3.72;2.47;;;4.60;99.90;;;;;;6215409;23;19997;-90
2023/03/01 03:02:59;;;;;;;4.20;1.88;;;4.60;99.90;;;;;;6214627;23;20027;-91
2023/03/01 03:05:28;;;;;;;3.13;1.92;;;4.60;99.90;;;;;;6214392;23;20091;-92
2023/03/01 03:07:55;;;;;;;11.38;2.35;;;4.60;99.90;;;;;;6214768;23;20017;-92
2023/03/01 03:10:26;;;;;;;7.38;3.58;;;4.60;99.90;;;;;;6215260;23;20452;-93
2023/03/01 03:13:12;;;;;;;5.80;3.17;;;4.60;99.90;;;;;;6214678;23;20016;-92
2023/03/01 03:15:42;;;;;;;7.30;3.33;;;4.60;99.90;;;;;;6215024;23;20021;-91
2023/03/01 03:18:12;;;;;;;5.88;2.95;;;4.70;99.90;;;;;;6190214;23;20413;-92
2023/03/01 03:20:40;;;;;;;4.05;2.80;;;4.60;99.90;;;;;;6215229;23;20428;-92
2023/03/01 03:23:06;;;;;;;5.75;2.65;;;4.70;99.90;;;;;;6219321;23;20005;-92
2023/03/01 03:25:31;;;;;;;4.63;2.58;;;4.60;99.90;;;;;;6218596;23;20004;-93
2023/03/01 03:27:59;;;;;;;4.90;3.00;;;4.70;99.90;;;;;;6215277;23;20061;-91
2023/03/01 03:30:31;;;;;;;5.13;2.95;;;4.60;99.90;;;;;;6216901;23;20004;-92
2023/03/01 03:32:58;;;;;;;5.82;2.95;;;4.60;99.90;;;;;;6215235;23;20005;-92
2023/03/01 03:35:32;;;;;;;6.47;3.50;;;4.70;99.90;;;;;;6215167;23;20424;-91
2023/03/01 03:38:03;;;;;;;4.70;2.63;;;4.60;99.90;;;;;;6215060;23;20005;-92
2023/03/01 03:40:34;;;;;;;7.35;3.33;;;4.70;99.90;;;;;;6216039;23;20001;-92
2023/03/01 03:43:01;;;;;;;4.68;3.03;;;4.70;99.90;;;;;;6214590;23;20406;-91
2023/03/01 03:45:26;;;;;;;5.22;2.65;;;4.70;99.90;;;;;;6215103;23;20091;-91
2023/03/01 03:47:52;;;;;;;3.05;2.10;;;4.70;99.90;;;;;;6214745;23;20039;-91
2023/03/01 03:50:19;;;;;;;2.30;1.73;;;4.70;99.90;;;;;;6214505;23;20008;-92
2023/03/01 03:52:44;;;;;;;2.78;2.03;;;4.70;99.90;;;;;;6214984;23;20012;-92
2023/03/01 03:55:12;;;;;;;1.70;1.00;;;4.60;99.90;;;;;;6215206;23;19997;-92
2023/03/01 03:57:39;;;;;;;1.40;1.10;;;4.60;99.90;;;;;;6214707;23;20043;-91
2023/03/01 04:00:13;;;;;;;1.30;1.02;;;4.60;99.90;;;;;;6215021;23;20051;-92
2023/03/01 04:02:42;;;;;;;2.45;1.50;;;4.60;99.90;;;;;;6216487;23;20023;-92
2023/03/01 04:05:10;;;;;;;2.78;1.70;;;4.60;99.90;;;;;;6216675;23;20000;-91
2023/03/01 04:07:37;;;;;;;3.28;1.65;;;4.60;99.90;;;;;;6216803;23;20012;-91
2023/03/01 04:10:06;;;;;;;3.75;1.67;;;4.60;99.90;;;;;;6216383;23;20051;-91
2023/03/01 04:12:33;;;;;;;3.08;1.60;;;4.50;99.90;;;;;;6216858;23;20367;-93
2023/03/01 04:15:00;;;;;;;1.85;1.50;;;4.50;99.90;;;;;;6216657;23;20008;-92
2023/03/01 04:17:26;;;;;;;1.92;1.50;;;4.50;99.90;;;;;;6216486;23;20047;-92
2023/03/01 04:19:52;;;;;;;2.28;1.30;;;4.50;99.90;;;;;;6216802;23;20012;-91
2023/03/01 04:22:18;;;;;;;2.75;1.38;;;4.50;99.90;;;;;;6216705;23;20007;-91
2023/03/01 04:24:45;;;;;;;2.80;1.45;;;4.50;99.90;;;;;;6216123;23;20498;-91
2023/03/01 04:27:11;;;;;;;3.13;2.00;;;4.50;99.90;;;;;;6216378;23;20091;-91
2023/03/01 04:29:37;;;;;;;2.25;1.50;;;4.50;99.90;;;;;;6216397;23;20009;-91
2023/03/01 04:32:03;;;;;;;5.22;2.05;;;4.50;99.90;;;;;;6216181;23;20451;-92
2023/03/01 04:34:29;;;;;;;2.88;1.98;;;4.50;99.90;;;;;;6216099;23;20428;-91
2023/03/01 04:36:55;;;;;;;3.83;1.90;;;4.50;99.90;;;;;;6216326;23;20035;-91
2023/03/01 04:39:21;;;;;;;5.95;1.92;;;4.50;99.90;;;;;;6216227;23;20424;-91
2023/03/01 04:41:47;;;;;;;9.95;2.53;;;4.50;99.90;;;;;;6216057;23;20035;-92
2023/03/01 04:44:12;;;;;;;9.00;3.08;;;4.50;99.90;;;;;;6216537;23;20008;-91
2023/03/01 04:46:39;;;;;;;7.68;2.85;;;4.50;99.90;;;;;;6216444;23;20035;-91
2023/03/01 04:49:05;;;;;;;5.28;2.50;;;4.50;99.90;;;;;;6219979;23;20013;-91
2023/03/01 04:51:32;;;;;;;4.95;3.10;;;4.60;99.90;;;;;;6230842;23;19997;-92
2023/03/01 04:53:58;;;;;;;9.95;3.45;;;4.60;99.90;;;;;;6222199;23;20083;-92
2023/03/01 04:56:24;;;;;;;3.95;3.10;;;4.50;99.90;;;;;;6218426;23;20424;-92
2023/03/01 04:58:51;;;;;;;4.68;2.70;;;4.50;99.90;;;;;;6216639;23;20005;-91
2023/03/01 05:01:19;;;;;;;8.43;3.35;;;4.50;99.90;;;;;;6217533;23;20079;-91
2023/03/01 05:03:49;;;;;;;4.63;3.30;;;4.60;99.90;;;;;;6220939;23;20179;-90
2023/03/01 05:06:16;;;;;;;7.18;3.95;;;4.70;99.90;;;;;;6220584;23;20488;-91
2023/03/01 05:08:43;;;;;;;6.90;4.20;;;4.70;99.90;;;;;;6221609;23;20023;-92
2023/03/01 05:11:10;;;;;;;4.88;3.67;;;4.80;99.90;;;;;;6221366;23;19996;-93
2023/03/01 05:13:37;;;;;;;7.70;3.50;;;4.70;99.90;;;;;;6230961;23;20339;-92
2023/03/01 05:16:03;;;;;;;6.35;3.42;;;4.70;99.90;;;;;;6222500;23;20007;-91
2023/03/01 05:18:32;;;;;;;6.25;2.97;;;4.70;99.90;;;;;;6221395;23;20371;-94
2023/03/01 05:21:07;;;;;;;3.83;2.33;;;4.70;99.90;;;;;;6221230;23;20061;-92
2023/03/01 05:23:34;;;;;;;4.22;2.50;;;4.70;99.90;;;;;;6220945;23;20095;-94
2023/03/01 05:26:01;;;;;;;5.85;3.13;;;4.70;99.90;;;;;;6220859;23;20011;-93
2023/03/01 05:28:30;;;;;;;7.20;2.88;;;4.80;99.90;;;;;;6220612;23;20023;-93
2023/03/01 05:30:57;;;;;;;8.73;2.50;;;4.80;99.90;;;;;;6220800;23;20039;-90
2023/03/01 05:33:23;;;;;;;4.88;2.80;;;4.80;99.90;;;;;;6220623;23;20012;-93
2023/03/01 05:35:51;;;;;;;9.48;2.60;;;4.80;99.90;;;;;;6220533;23;20432;-91
2023/03/01 05:38:17;;;;;;;8.10;2.83;;;4.80;99.90;;;;;;6220905;23;20007;-92
2023/03/01 05:40:45;;;;;;;7.25;2.30;;;4.70;99.90;;;;;;6220880;23;20427;-92
2023/03/01 05:43:13;;;;;;;5.22;2.33;;;4.70;99.90;;;;;;6220916;23;20004;-91
2023/03/01 05:45:40;;;;;;;4.57;2.78;;;4.70;99.90;;;;;;6220581;23;20008;-92
2023/03/01 05:48:06;;;;;;;5.05;2.53;;;4.70;99.90;;;;;;6220677;23;20012;-92
2023/03/01 05:50:39;;;;;;;4.28;2.20;;;4.70;99.90;;;;;;6220613;23;20019;-92
2023/03/01 05:53:09;;;;;;;6.80;2.15;;;4.70;99.90;;;;;;6220804;23;20328;-91
2023/03/01 05:55:36;;;;;;;5.13;2.10;;;4.70;99.90;;;;;;6221038;23;20007;-92
2023/03/01 05:58:07;;;;;;;2.40;1.55;;;4.60;99.90;;;;;;6220646;23;20095;-92
2023/03/01 06:00:34;;;;;;;4.18;1.80;;;4.60;99.90;;;;;;6220685;23;20004;-91
2023/03/01 06:03:00;;;;;;;4.15;1.88;;;4.60;99.90;;;;;;6220217;23;20016;-92
2023/03/01 06:05:27;;;;;;;3.42;2.17;;;4.60;99.90;;;;;;6220689;23;20008;-91
2023/03/01 06:07:53;;;;;;;3.20;2.20;;;4.60;99.90;;;;;;6220532;23;20079;-91
2023/03/01 06:10:22;;;;;;;4.95;2.50;;;4.60;99.90;;;;;;6220214;23;20004;-91
2023/03/01 06:12:48;;;;;;;5.57;2.33;;;4.50;99.90;;;;;;6220326;23;20008;-91
2023/03/01 06:15:15;;;;;;;7.07;2.65;;;4.50;99.90;;;;;;6219637;23;20087;-92
2023/03/01 06:17:43;;;;;;;8.05;2.75;;;4.50;99.90;;;;;;6220692;23;20004;-92
2023/03/01 06:20:11;;;;;;;9.00;4.57;;;4.50;99.90;;;;;;6221423;23;20012;-91
2023/03/01 06:22:37;;;;;;;6.60;3.40;;;4.50;99.90;;;;;;6220996;23;20000;-92
2023/03/01 06:25:04;;;;;;;9.57;3.13;;;4.50;99.90;;;;;;6221721;23;20047;-93
2023/03/01 06:27:30;;;;;;;10.38;3.60;;;4.50;99.90;;;;;;6222095;23;20011;-93
2023/03/01 06:29:55;;;;;;;8.40;3.10;;;4.50;99.90;;;;;;6222035;23;20163;-92
2023/03/01 06:32:21;;;;;;;8.57;3.30;;;4.50;99.90;;;;;;6229285;23;20008;-91
2023/03/01 06:34:47;;;;;;;6.55;3.05;;;4.40;99.90;;;;;;6237701;23;20466;-92
2023/03/01 06:37:13;;;;;;;10.88;3.22;;;4.50;99.90;;;;;;6236535;23;20027;-92
2023/03/01 06:39:38;;;;;;;6.70;2.83;;;4.40;99.90;;;;;;6235534;23;20008;-92
2023/03/01 06:42:04;;;;;;;6.63;2.47;;;4.40;99.90;;;;;;6234491;23;20006;-91
2023/03/01 06:44:30;;;;;;;4.20;2.40;;;4.40;99.90;;;;;;6220986;23;20385;-90
2023/03/01 06:46:56;;;;;;;9.50;1.98;;;4.40;99.90;;;;;;6220119;23;20004;-91
2023/03/01 06:49:22;;;;;;;5.55;1.70;;;4.40;99.90;;;;;;6220286;23;20031;-92
2023/03/01 06:51:47;;;;;;;4.72;1.70;;;4.40;99.90;;;;;;6220359;23;20427;-91
2023/03/01 06:54:13;;;;;;;6.57;1.63;;;4.40;99.90;;;;;;6220831;23;20012;-91
2023/03/01 06:56:39;;;;;;;11.57;1.65;;;4.40;99.90;;;;;;6220824;23;20378;-91
2023/03/01 06:59:05;;;;;;;4.50;1.63;;;4.40;99.90;;;;;;6220548;23;20087;-92
2023/03/01 07:01:31;;;;;;;3.97;1.35;;;4.40;99.90;;;;;;6220537;23;20083;-92
2023/03/01 07:03:57;;;;;;;3.65;1.77;;;4.40;99.90;;;;;;6220924;23;20036;-92
2023/03/01 07:06:23;;;;;;;4.72;1.08;;;4.40;99.90;;;;;;6232687;23;20011;-93
2023/03/01 07:08:49;;;;;;;6.22;1.60;;;4.50;99.90;;;;;;6221612;23;20020;-91
2023/03/01 07:11:15;;;;;;;2.60;1.50;;;4.40;99.90;;;;;;6221176;23;20423;-91
2023/03/01 07:13:41;;;;;;;3.97;1.38;;;4.40;99.90;;;;;;6221683;23;20035;-91
2023/03/01 07:16:07;;;;;;;7.68;1.60;;;4.40;99.90;;;;;;6221006;23;19997;-92
2023/03/01 07:18:33;;;;;;;4.55;1.33;;;4.40;99.90;;;;;;6220817;23;20012;-92
2023/03/01 07:21:04;;;;;;;6.72;1.90;;;4.40;99.90;;;;;;6220740;23;20117;-91
2023/03/01 07:23:30;;;;;;;3.78;1.50;;;4.40;99.90;;;;;;6220983;23;20443;-92
2023/03/01 07:25:56;;;;;;;2.05;0.98;;;4.50;99.90;;;;;;6220319;23;20054;-92
2023/03/01 07:28:24;;;;;;;2.80;1.08;;;4.50;99.90;;;;;;6220484;23;20451;-90
2023/03/01 07:30:50;;;;;;;6.38;1.60;;;4.50;99.90;;;;;;6220672;23;20083;-90
2023/03/01 07:33:17;;;;;;;2.75;1.30;;;4.50;99.90;;;;;;6220123;23;20428;-90
2023/03/01 07:35:42;;;;;;;3.08;1.20;;;4.50;99.90;;;;;;6221994;23;20004;-91
2023/03/01 07:38:08;;;;;;;7.10;1.50;;;4.50;99.90;;;;;;6222058;23;20503;-91
2023/03/01 07:40:34;;;;;;;3.78;1.70;;;4.50;99.90;;;;;;6222006;23;20012;-91
2023/03/01 07:43:01;;;;;;;3.92;1.38;;;4.50;99.90;;;;;;6222562;23;20034;-92
2023/03/01 07:45:27;;;;;;;4.38;1.42;;;4.50;99.90;;;;;;6222608;23;20008;-91
2023/03/01 07:47:54;;;;;;;3.65;1.23;;;4.50;99.90;;;;;;6222871;23;20039;-92
2023/03/01 07:50:20;;;;;;;3.28;1.48;;;4.60;99.90;;;;;;6224812;23;20432;-91
2023/03/01 07:52:47;;;;;;;2.33;1.10;;;4.60;99.90;;;;;;6226442;23;20012;-92
2023/03/01 07:55:13;;;;;;;5.20;1.20;;;4.60;99.90;;;;;;6224572;23;20027;-91
2023/03/01 07:57:39;;;;;;;3.10;1.00;;;4.60;99.90;;;;;;6224237;23;20008;-89
2023/03/01 08:00:08;;;;;;;4.88;1.08;;;4.60;99.90;;;;;;6223797;23;20008;-91
2023/03/01 08:02:34;;;;;;;4.55;1.20;;;4.60;99.90;;;;;;6222015;23;20017;-91
2023/03/01 08:04:59;;;;;;;4.72;1.20;;;4.70;99.90;;;;;;6222073;23;20457;-91
2023/03/01 08:07:25;;;;;;;2.05;1.13;;;4.70;99.90;;;;;;6221663;23;20008;-91
2023/03/01 08:09:51;;;;;;;4.90;1.33;;;4.70;99.90;;;;;;6222564;23;20012;-89
2023/03/01 08:12:16;;;;;;;5.35;1.20;;;4.70;99.90;;;;;;6221315;23;20000;-88
2023/03/01 08:14:42;;;;;;;4.60;1.00;;;4.80;99.90;;;;;;6221832;23;20012;-90
2023/03/01 08:17:08;;;;;;;2.70;1.05;;;4.80;99.90;;;;;;6221329;23;20074;-90
2023/03/01 08:19:34;;;;;;;4.07;1.20;;;4.80;99.90;;;;;;6221059;23;20056;-90
2023/03/01 08:22:01;;;;;;;4.45;1.33;;;4.90;99.90;;;;;;6221124;23;20008;-89
2023/03/01 08:24:27;;;;;;;5.60;1.38;;;4.90;99.90;;;;;;6221448;23;20258;-90
2023/03/01 08:26:53;;;;;;;6.35;1.00;;;5.00;99.90;;;;;;6221065;23;20008;-89
2023/03/01 08:29:18;;;;;;;5.00;2.15;;;5.00;99.90;;;;;;6219833;23;20096;-90
2023/03/01 08:31:44;;;;;;;6.63;1.70;;;5.00;99.90;;;;;;6220378;23;20000;-89
2023/03/01 08:34:12;;;;;;;2.08;1.30;;;5.10;99.90;;;;;;6218233;23;20301;-89
2023/03/01 08:36:41;;;;;;;4.38;1.45;;;5.10;99.90;;;;;;6219326;23;20137;-89
2023/03/01 08:39:09;;;;;;;9.27;2.08;;;5.10;99.90;;;;;;6219889;23;20000;-89
2023/03/01 08:41:35;;;;;;;6.63;2.05;;;5.20;99.90;;;;;;6220499;23;20004;-89
2023/03/01 08:44:00;;;;;;;6.30;1.60;;;5.20;99.90;;;;;;6220601;23;20022;-88
2023/03/01 08:46:37;;;;;;;4.90;2.20;;;5.30;99.90;;;;;;6219372;23;20008;-87
2023/03/01 08:49:07;;;;;;;8.70;1.60;;;5.30;99.90;;;;;;6220383;23;20103;-87
2023/03/01 08:51:36;;;;;;;10.38;1.70;;;5.40;99.90;;;;;;6220817;23;20010;-88
2023/03/01 08:54:19;;;;;;;4.50;1.58;;;5.40;99.90;;;;;;6248483;23;20012;-91
2023/03/01 08:56:46;;;;;;;6.60;1.27;;;5.50;99.90;;;;;;6249383;23;20195;-88
2023/03/01 08:59:13;;;;;;;7.88;1.50;;;5.60;99.90;;;;;;6233812;23;20008;-90
2023/03/01 09:01:40;;;;;;;3.90;1.00;;;5.60;99.90;;;;;;6221248;23;20004;-89
2023/03/01 09:04:06;;;;;;;7.22;1.23;;;5.60;99.90;;;;;;6220680;23;20016;-89
2023/03/01 09:06:33;;;;;;;3.47;1.08;;;5.70;99.90;;;;;;6220977;23;20004;-89
2023/03/01 09:08:59;;;;;;;3.03;1.30;;;5.70;99.90;;;;;;6220371;23;20008;-90
2023/03/01 09:11:25;;;;;;;6.55;1.40;;;5.70;99.90;;;;;;6220679;23;20007;-89
2023/03/01 09:13:51;;;;;;;8.02;2.10;;;5.70;99.90;;;;;;6220877;23;20016;-89
2023/03/01 09:16:20;;;;;;;3.63;1.35;;;5.80;99.90;;;;;;6220430;23;20031;-90
2023/03/01 09:18:53;;;;;;;3.63;1.35;;;5.80;99.90;;;;;;6220483;23;20504;-90
2023/03/01 09:21:21;;;;;;;7.55;1.50;;;5.80;99.90;;;;;;6220719;23;20007;-89
2023/03/01 09:23:48;;;;;;;5.97;1.50;;;5.80;99.90;;;;;;6220307;23;20004;-89
2023/03/01 09:26:16;;;;;;;2.22;0.88;;;5.80;99.90;;;;;;6220426;23;20023;-88
2023/03/01 09:28:44;;;;;;;3.70;1.10;;;5.80;99.90;;;;;;6220328;23;20035;-88
2023/03/01 09:31:11;;;;;;;6.63;1.05;;;5.80;99.90;;;;;;6246814;23;20004;-88
2023/03/01 09:33:36;;;;;;;4.38;1.10;;;5.90;99.90;;;;;;6247033;23;20000;-89
2023/03/01 09:36:10;;;;;;;2.42;0.80;;;5.90;99.90;;;;;;6221122;23;20050;-88
2023/03/01 09:38:35;;;;;;;4.43;0.95;;;5.90;99.90;;;;;;6221391;23;20107;-90
2023/03/01 09:41:01;;;;;;;3.90;0.68;;;6.00;99.90;;;;;;6220327;23;20050;-88
2023/03/01 09:43:59;;;;;;;2.88;1.00;;;6.00;99.90;;;;;;6220457;23;20007;-89
2023/03/01 09:46:26;;;;;;;5.22;1.15;;;6.10;99.90;;;;;;6219107;23;20058;-88
2023/03/01 09:48:57;;;;;;;5.80;1.10;;;6.20;99.90;;;;;;6220157;23;20099;-89
2023/03/01 09:51:34;;;;;;;2.55;0.90;;;6.20;99.90;;;;;;6219939;23;20099;-88
2023/03/01 09:54:05;;;;;;;3.47;0.80;;;6.30;99.90;;;;;;6220300;23;20010;-87
2023/03/01 09:56:53;;;;;;;8.50;1.20;;;6.50;99.90;;;;;;6219607;23;20004;-88
2023/03/01 09:59:29;;;;;;;2.15;1.10;;;6.60;99.90;;;;;;6219694;23;20376;-89
2023/03/01 10:02:21;;;;;;;4.82;1.45;;;6.80;99.90;;;;;;6219616;23;20008;-88
2023/03/01 10:04:59;;;;;;;5.32;2.05;;;7.00;99.90;;;;;;6219972;23;20015;-88
2023/03/01 10:07:33;;;;;;;6.47;1.40;;;7.30;99.90;;;;;;6219379;23;20004;-89
2023/03/01 10:10:00;;;;;;;3.80;1.92;;;7.50;99.90;;;;;;6218898;23;20008;-88
2023/03/01 10:12:39;;;;;;;9.18;1.08;;;7.70;99.90;;;;;;6246369;23;19996;-89
2023/03/01 10:15:32;;;;;;;4.57;1.10;;;7.80;99.90;;;;;;6246400;23;20004;-89
2023/03/01 10:18:14;;;;;;;5.60;1.35;;;7.80;99.90;;;;;;6216714;23;20071;-88
2023/03/01 10:20:48;;;;;;;2.90;1.02;;;7.90;99.90;;;;;;6219757;23;20008;-88
2023/03/01 10:23:13;;;;;;;4.05;0.88;;;8.00;99.90;;;;;;6219641;23;20014;-88
2023/03/01 10:26:00;;;;;;;4.70;1.00;;;8.00;99.90;;;;;;6246413;23;20083;-87
2023/03/01 10:28:41;;;;;;;5.35;1.30;;;8.10;99.90;;;;;;6246390;23;20355;-87
2023/03/01 10:31:14;;;;;;;2.63;0.88;;;8.20;99.90;;;;;;6219752;23;20000;-88
2023/03/01 10:33:41;;;;;;;8.63;1.30;;;8.20;99.90;;;;;;6219382;23;20019;-86
2023/03/01 10:36:07;;;;;;;9.65;2.70;;;8.10;99.90;;;;;;6219640;23;20000;-87
2023/03/01 10:38:54;;;;;;;6.85;1.50;;;8.00;99.90;;;;;;6218990;23;20036;-87
2023/03/01 10:41:25;;;;;;;5.82;1.38;;;7.90;99.90;;;;;;6246022;23;20095;-86
2023/03/01 10:43:56;;;;;;;7.20;1.20;;;7.70;99.90;;;;;;6246230;23;20061;-89
2023/03/01 10:46:34;;;;;;;5.50;1.00;;;7.70;99.90;;;;;;6246518;23;20007;-87
2023/03/01 10:49:14;;;;;;;3.17;1.10;;;7.70;99.90;;;;;;6246500;23;20019;-88
2023/03/01 10:51:46;;;;;;;4.38;0.80;;;7.80;99.90;;;;;;6218850;23;20186;-88
2023/03/01 10:54:21;;;;;;;1.73;0.77;;;8.10;99.90;;;;;;6245019;23;19996;-87
2023/03/01 10:57:23;;;;;;;2.20;1.05;;;8.50;99.90;;;;;;6219130;23;20004;-87
2023/03/01 11:00:10;;;;;;;5.53;1.52;;;8.80;99.90;;;;;;6219125;23;20005;-89
2023/03/01 11:02:36;;;;;;;6.20;1.20;;;9.10;99.90;;;;;;6246495;23;20351;-87
2023/03/01 11:05:08;;;;;;;3.28;1.45;;;9.10;99.90;;;;;;6219223;23;20004;-87
2023/03/01 11:07:51;;;;;;;4.30;0.85;;;9.10;99.90;;;;;;6219566;23;20034;-87
2023/03/01 11:10:19;;;;;;;5.28;0.90;;;8.90;99.90;;;;;;6245703;23;20308;-88
2023/03/01 11:12:45;;;;;;;5.80;1.20;;;8.80;99.90;;;;;;6219111;23;20487;-87
2023/03/01 11:15:26;;;;;;;3.33;0.90;;;8.60;99.90;;;;;;6246073;23;20034;-88
2023/03/01 11:17:53;;;;;;;5.22;0.98;;;8.60;99.90;;;;;;6219087;23;20065;-87
2023/03/01 11:20:29;;;;;;;6.22;1.30;;;8.50;99.90;;;;;;6219186;23;20004;-88
2023/03/01 11:22:59;;;;;;;5.38;1.60;;;8.40;99.90;;;;;;6246087;23;20001;-88
2023/03/01 11:25:51;;;;;;;3.45;1.15;;;8.40;99.90;;;;;;6219585;23;20427;-88
2023/03/01 11:28:19;;;;;;;4.97;1.50;;;8.30;99.90;;;;;;6218687;23;20502;-89
2023/03/01 11:30:59;;;;;;;8.00;1.70;;;8.20;99.90;;;;;;6219720;23;20004;-88
2023/03/01 11:33:37;;;;;;;5.80;1.33;;;8.20;99.90;;;;;;6219255;23;20168;-87
2023/03/01 11:36:15;;;;;;;6.13;1.50;;;8.50;99.90;;;;;;6219155;23;20404;-88
2023/03/01 11:38:41;;;;;;;4.65;1.30;;;8.60;99.90;;;;;;6219550;23;20091;-88
2023/03/01 11:41:08;;;;;;;2.67;1.10;;;8.70;99.90;;;;;;6219168;23;20004;-88
2023/03/01 11:43:49;;;;;;;4.03;0.80;;;8.80;99.90;;;;;;6219425;23;20000;-88
2023/03/01 11:46:33;;;;;;;4.97;1.23;;;8.60;99.90;;;;;;6219391;23;20035;-88
2023/03/01 11:49:19;;;;;;;5.60;1.40;;;8.50;99.90;;;;;;6219268;23;20408;-89
2023/03/01 11:52:13;;;;;;;5.35;1.67;;;8.30;99.90;;;;;;6219110;23;20043;-88
2023/03/01 11:54:41;;;;;;;6.55;2.10;;;8.20;99.90;;;;;;6246270;23;20008;-88
2023/03/01 11:57:28;;;;;;;8.80;2.10;;;8.10;99.90;;;;;;6220998;23;20000;-89
2023/03/01 12:00:20;;;;;;;6.72;2.00;;;8.10;99.90;;;;;;6217679;23;20008;-89
2023/03/01 12:03:09;;;;;;;10.10;2.50;;;8.00;99.90;;;;;;6218532;23;20024;-87
2023/03/01 12:06:12;;;;;;;6.32;1.65;;;8.00;99.90;;;;;;6094163;23;20517;-88
2023/03/01 12:08:51;;;;;;;3.65;1.85;;;8.00;99.90;;;;;;6070702;23;20080;-83
2023/03/01 12:11:54;;;;;;;3.65;1.65;;;8.00;99.90;;;;;;6093001;23;20010;-85
2023/03/01 12:14:28;;;;;;;4.18;1.38;;;8.00;99.90;;;;;;6069146;23;20007;-85
2023/03/01 12:17:12;;;;;;;5.40;1.48;;;8.10;99.90;;;;;;6069636;23;20002;-86
2023/03/01 12:19:59;;;;;;;10.60;2.10;;;8.50;99.90;;;;;;6072308;23;20089;-95
2023/03/01 12:22:44;;;;;;;3.60;1.33;;;8.80;99.90;;;;;;6097442;23;20017;-93
2023/03/01 12:25:48;;;;;;;3.65;1.40;;;9.30;99.90;;;;;;6070973;23;20113;-84
2023/03/01 12:28:49;;;;;;;8.35;1.30;;;9.70;99.90;;;;;;6037385;23;20011;-85
2023/03/01 12:31:33;;;;;;;;;;;10.00;99.90;;;;;;6037752;23;20495;-84
2023/03/01 12:34:22;;;;;;;3.40;0.98;;;10.10;99.90;;;;;;6037339;23;19909;-84
2023/03/01 12:36:56;;;;;;;5.18;1.58;;;10.10;99.90;;;;;;6037076;23;20456;-83
2023/03/01 12:39:55;;;;;;;3.33;1.48;;;10.20;99.90;;;;;;6037237;23;20015;-84
2023/03/01 12:42:33;;;;;;;10.55;1.23;;;10.20;99.90;;;;;;6070660;23;20018;-83
2023/03/01 12:45:28;;;;;;;4.90;1.20;;;10.10;99.90;;;;;;6099052;23;20429;-84
2023/03/01 12:48:08;;;;;;;5.25;1.30;;;10.00;99.90;;;;;;6073125;23;20041;-84
2023/03/01 12:50:50;;;;;;;6.90;1.50;;;9.90;99.90;;;;;;6072947;23;20006;-84
2023/03/01 12:53:22;;;;;;;6.82;1.50;;;9.60;99.90;;;;;;6096534;23;20021;-84
2023/03/01 12:55:50;;;;;;;8.07;2.05;;;9.40;99.90;;;;;;6072664;23;20069;-83
2023/03/01 12:58:30;;;;;;;6.35;1.55;;;9.20;99.90;;;;;;6092516;23;20065;-84
2023/03/01 13:01:19;;;;;;;6.40;1.48;;;9.00;99.90;;;;;;6068598;23;20486;-84
2023/03/01 13:04:03;;;;;;;6.18;1.30;;;8.80;99.90;;;;;;6152744;23;20398;-84
2023/03/01 13:06:50;;;;;;;4.30;0.98;;;8.70;99.90;;;;;;6152335;23;20117;-84
2023/03/01 13:09:23;;;;;;;4.38;0.85;;;8.70;99.90;;;;;;6152291;23;20020;-84
2023/03/01 13:11:48;;;;;;;8.13;1.27;;;8.80;99.90;;;;;;6152574;23;20005;-83
2023/03/01 13:14:22;;;;;;;5.18;0.98;;;8.80;99.90;;;;;;6152499;23;20421;-84
2023/03/01 13:16:52;;;;;;;4.88;1.35;;;8.70;99.90;;;;;;6152641;23;20001;-84
2023/03/01 13:19:36;;;;;;;5.28;1.30;;;8.80;99.90;;;;;;6152684;23;20109;-85